createdAt,value
2018-10-02T00:02:27.769Z,82.00
2018-10-02T00:06:01.020Z,82.20
2018-10-02T00:09:34.266Z,82.20
2018-10-02T00:13:12.937Z,82.20
2018-10-02T00:16:46.190Z,82.10
2018-10-02T00:20:19.431Z,82.00
2018-10-02T00:23:52.652Z,81.80
2018-10-02T00:27:25.895Z,81.40
2018-10-02T00:30:59.132Z,81.00
2018-10-02T00:34:32.368Z,80.60
2018-10-02T00:38:05.630Z,80.20
2018-10-02T00:41:38.843Z,79.90
2018-10-02T00:45:12.078Z,79.70
2018-10-02T00:48:45.401Z,79.80
2018-10-02T00:52:18.644Z,79.80
2018-10-02T00:55:51.888Z,80.00
2018-10-02T00:59:25.112Z,80.40
2018-10-02T01:02:58.343Z,80.60
2018-10-02T01:06:31.607Z,81.00
2018-10-02T01:10:04.862Z,81.20
2018-10-02T01:13:38.112Z,81.50
2018-10-02T01:17:11.345Z,81.80
2018-10-02T01:20:44.556Z,82.00
2018-10-02T01:24:17.807Z,82.20
2018-10-02T01:27:51.053Z,82.30
2018-10-02T01:31:24.281Z,82.30
2018-10-02T01:34:57.548Z,82.50
2018-10-02T01:38:30.791Z,82.50
2018-10-02T01:42:04.036Z,82.10
2018-10-02T01:45:37.260Z,82.00
2018-10-02T01:49:10.501Z,82.00
2018-10-02T01:52:44.444Z,82.10
2018-10-02T01:56:17.679Z,82.60
2018-10-02T01:59:50.924Z,83.30
2018-10-02T02:03:24.156Z,83.90
2018-10-02T02:06:57.394Z,84.50
2018-10-02T02:10:30.626Z,85.00
2018-10-02T02:14:03.842Z,85.60
2018-10-02T02:17:37.076Z,86.10
2018-10-02T02:21:10.321Z,86.50
2018-10-02T02:24:43.545Z,86.70
2018-10-02T02:28:16.780Z,87.00
2018-10-02T02:31:50.008Z,87.40
2018-10-02T02:35:23.247Z,87.50
2018-10-02T02:38:56.488Z,87.80
2018-10-02T02:42:29.726Z,88.10
2018-10-02T02:46:03.155Z,88.40
2018-10-02T02:49:41.909Z,88.50
2018-10-02T02:53:17.124Z,88.30
2018-10-02T02:56:50.390Z,88.20
2018-10-02T03:00:24.086Z,88.00
2018-10-02T03:03:57.544Z,88.00
2018-10-02T03:07:30.797Z,88.20
2018-10-02T03:11:04.025Z,88.20
2018-10-02T03:14:37.274Z,88.50
2018-10-02T03:18:10.501Z,88.60
2018-10-02T03:21:43.812Z,88.70
2018-10-02T03:25:16.998Z,88.80
2018-10-02T03:28:50.268Z,88.90
2018-10-02T03:32:23.585Z,89.20
2018-10-02T03:35:56.816Z,89.40
2018-10-02T03:39:30.143Z,89.70
2018-10-02T03:43:03.351Z,90.00
2018-10-02T03:46:36.584Z,90.10
2018-10-02T03:50:09.835Z,90.20
2018-10-02T03:53:43.061Z,90.30
2018-10-02T03:57:16.301Z,90.30
2018-10-02T04:00:49.571Z,90.40
2018-10-02T04:04:22.820Z,90.50
2018-10-02T04:07:56.061Z,90.50
2018-10-02T04:11:29.315Z,90.60
2018-10-02T04:15:02.648Z,90.60
2018-10-02T04:18:35.896Z,90.60
2018-10-02T04:22:09.129Z,90.60
2018-10-02T04:25:42.372Z,90.60
2018-10-02T04:29:15.596Z,90.70
2018-10-02T04:32:48.847Z,90.60
2018-10-02T04:36:22.304Z,90.60
2018-10-02T04:39:55.600Z,90.60
2018-10-02T04:43:28.893Z,90.50
2018-10-02T04:47:02.145Z,90.50
2018-10-02T04:50:35.372Z,90.50
2018-10-02T04:54:08.619Z,90.70
2018-10-02T04:57:41.845Z,90.20
2018-10-02T05:01:15.074Z,90.10
2018-10-02T05:04:48.343Z,90.00
2018-10-02T05:08:21.701Z,90.00
2018-10-02T05:11:54.880Z,90.10
2018-10-02T05:15:28.132Z,90.20
2018-10-02T05:19:01.392Z,90.20
2018-10-02T05:22:34.644Z,90.20
2018-10-02T05:26:07.871Z,90.10
2018-10-02T05:29:41.199Z,90.10
2018-10-02T05:33:14.440Z,90.00
2018-10-02T05:36:47.713Z,90.00
2018-10-02T05:40:20.948Z,90.00
2018-10-02T05:43:54.180Z,89.80
2018-10-02T05:47:27.451Z,89.70
2018-10-02T05:51:00.676Z,89.50
2018-10-02T05:54:33.912Z,89.50
2018-10-02T05:58:07.140Z,89.50
2018-10-02T06:01:40.372Z,89.60
2018-10-02T06:05:13.621Z,89.70
2018-10-02T06:08:46.904Z,89.80
2018-10-02T06:12:20.160Z,89.90
2018-10-02T06:15:53.751Z,90.00
2018-10-02T06:19:26.993Z,89.70
2018-10-02T06:23:00.250Z,89.30
2018-10-02T06:26:33.514Z,88.50
2018-10-02T06:30:06.765Z,87.80
2018-10-02T06:33:39.992Z,87.40
2018-10-02T06:37:13.236Z,86.90
2018-10-02T06:40:46.493Z,86.10
2018-10-02T06:44:19.731Z,85.70
2018-10-02T06:47:52.977Z,84.70
2018-10-02T06:51:26.358Z,84.40
2018-10-02T06:54:59.448Z,83.60
2018-10-02T06:58:32.698Z,83.20
2018-10-02T07:02:05.913Z,83.00
2018-10-02T07:05:39.160Z,82.20
2018-10-02T07:09:12.423Z,81.40
2018-10-02T07:12:45.649Z,80.40
2018-10-02T07:16:18.916Z,79.70
2018-10-02T07:19:52.193Z,79.50
2018-10-02T07:23:25.416Z,79.10
2018-10-02T07:26:58.736Z,78.40
2018-10-02T07:30:31.956Z,78.20
2018-10-02T07:34:05.221Z,77.00
2018-10-02T07:37:38.457Z,75.70
2018-10-02T07:41:11.684Z,75.80
2018-10-02T07:44:44.920Z,76.00
2018-10-02T07:48:18.216Z,76.20
2018-10-02T07:51:51.424Z,76.20
2018-10-02T07:55:24.740Z,75.30
2018-10-02T07:58:57.907Z,74.90
2018-10-02T08:02:31.198Z,75.20
2018-10-02T08:06:04.445Z,74.90
2018-10-02T08:09:37.681Z,74.70
2018-10-02T08:13:11.948Z,74.10
2018-10-02T08:16:45.207Z,74.30
2018-10-02T08:20:18.462Z,74.80
2018-10-02T08:23:51.694Z,73.00
2018-10-02T08:27:25.005Z,72.30
2018-10-02T08:30:58.209Z,70.90
2018-10-02T08:34:31.497Z,69.40
2018-10-02T08:38:04.712Z,68.60
2018-10-02T08:41:38.287Z,68.30
2018-10-02T08:45:11.520Z,67.30
2018-10-02T08:48:44.773Z,67.40
2018-10-02T08:52:18.076Z,67.00
2018-10-02T08:55:51.261Z,66.30
2018-10-02T08:59:24.496Z,66.40
2018-10-02T09:02:57.845Z,63.90
2018-10-02T09:06:31.057Z,62.20
2018-10-02T09:10:04.319Z,62.00
2018-10-02T09:13:37.575Z,62.90
2018-10-02T09:17:10.825Z,61.80
2018-10-02T09:20:44.091Z,61.60
2018-10-02T09:24:17.329Z,61.40
2018-10-02T09:27:50.595Z,60.60
2018-10-02T09:31:29.202Z,60.00
2018-10-02T09:35:07.799Z,59.70
2018-10-02T09:39:48.998Z,58.90
2018-10-02T09:43:27.505Z,58.50
2018-10-02T09:47:00.743Z,58.30
2018-10-02T09:50:34.037Z,58.20
2018-10-02T09:54:07.239Z,57.80
2018-10-02T09:57:40.469Z,58.10
2018-10-02T10:01:19.216Z,58.00
2018-10-02T10:04:52.457Z,57.80
2018-10-02T10:08:25.712Z,57.50
2018-10-02T10:11:58.956Z,57.70
2018-10-02T10:15:32.204Z,57.50
2018-10-02T10:19:05.763Z,57.10
2018-10-02T10:22:39.096Z,56.90
2018-10-02T10:26:12.285Z,56.70
2018-10-02T10:29:45.513Z,56.00
2018-10-02T10:33:18.773Z,56.00
2018-10-02T10:36:52.213Z,56.20
2018-10-02T10:40:25.508Z,56.60
2018-10-02T10:43:58.704Z,57.80
2018-10-02T10:47:31.972Z,59.10
2018-10-02T10:51:05.216Z,60.10
2018-10-02T10:54:38.448Z,61.10
2018-10-02T10:58:11.714Z,62.20
2018-10-02T11:01:44.946Z,63.10
2018-10-02T11:05:18.264Z,64.90
2018-10-02T11:08:51.509Z,65.30
2018-10-02T11:12:24.752Z,66.20
2018-10-02T11:15:57.987Z,66.60
2018-10-02T11:19:31.445Z,68.20
2018-10-02T11:23:04.656Z,68.30
2018-10-02T11:26:37.889Z,68.80
2018-10-02T11:30:11.123Z,68.50
2018-10-02T11:33:44.356Z,68.40
2018-10-02T11:37:17.697Z,68.10
2018-10-02T11:40:50.894Z,67.80
2018-10-02T11:44:24.188Z,67.00
2018-10-02T11:47:57.380Z,66.30
2018-10-02T11:51:30.629Z,65.10
2018-10-02T11:55:03.894Z,62.70
2018-10-02T11:58:37.165Z,62.00
2018-10-02T12:02:10.700Z,62.00
2018-10-02T12:05:43.996Z,60.40
2018-10-02T12:09:17.272Z,58.90
2018-10-02T12:12:50.539Z,57.70
2018-10-02T12:16:23.790Z,57.90
2018-10-02T12:19:57.282Z,57.90
2018-10-02T12:23:30.340Z,57.90
2018-10-02T12:27:03.584Z,56.30
2018-10-02T12:30:36.819Z,56.00
2018-10-02T12:34:10.049Z,54.50
2018-10-02T12:37:43.285Z,54.40
2018-10-02T12:41:16.505Z,54.00
2018-10-02T12:44:49.821Z,53.10
2018-10-02T12:48:23.106Z,51.90
2018-10-02T12:51:56.321Z,52.00
2018-10-02T12:55:29.568Z,51.80
2018-10-02T12:59:02.812Z,51.40
2018-10-02T13:02:36.064Z,51.00
2018-10-02T13:06:09.356Z,50.80
2018-10-02T13:09:42.605Z,51.00
2018-10-02T13:13:15.956Z,52.00
2018-10-02T13:16:49.204Z,52.40
2018-10-02T13:20:22.437Z,53.10
2018-10-02T13:23:55.676Z,53.80
2018-10-02T13:27:28.918Z,55.30
2018-10-02T13:31:02.175Z,56.30
2018-10-02T13:34:35.700Z,57.10
2018-10-02T13:38:08.883Z,57.90
2018-10-02T13:41:42.122Z,58.10
2018-10-02T13:45:15.364Z,58.60
2018-10-02T13:48:48.627Z,58.70
2018-10-02T13:52:21.853Z,58.70
2018-10-02T13:55:55.123Z,58.70
2018-10-02T13:59:28.567Z,58.50
2018-10-02T14:03:02.859Z,58.40
2018-10-02T14:06:36.135Z,58.20
2018-10-02T14:10:09.389Z,58.60
2018-10-02T14:13:42.637Z,58.60
2018-10-02T14:17:15.908Z,58.80
2018-10-02T14:20:49.316Z,59.50
2018-10-02T14:24:22.587Z,60.00
2018-10-02T14:27:55.909Z,60.10
2018-10-02T14:31:29.260Z,60.00
2018-10-02T14:35:02.508Z,60.10
2018-10-02T14:38:35.804Z,59.90
2018-10-02T14:42:09.051Z,60.00
2018-10-02T14:45:42.672Z,60.20
2018-10-02T14:49:16.157Z,60.40
2018-10-02T14:52:50.098Z,60.70
2018-10-02T14:56:23.325Z,61.00
2018-10-02T14:59:56.992Z,61.00
2018-10-02T15:03:30.638Z,61.20
2018-10-02T15:07:03.977Z,61.40
2018-10-02T15:10:37.247Z,61.50
2018-10-02T15:14:10.504Z,61.30
2018-10-02T15:17:43.769Z,61.00
2018-10-02T15:21:17.048Z,60.60
2018-10-02T15:24:50.316Z,60.10
2018-10-02T15:28:23.820Z,59.50
2018-10-02T15:31:57.103Z,59.00
2018-10-02T15:35:30.371Z,59.20
2018-10-02T15:39:04.251Z,58.80
2018-10-02T15:42:37.581Z,58.40
2018-10-02T15:46:10.885Z,58.10
2018-10-02T15:49:44.150Z,58.20
2018-10-02T15:53:17.429Z,58.20
2018-10-02T15:56:51.485Z,58.00
2018-10-02T16:00:24.731Z,58.10
2018-10-02T16:03:57.980Z,58.20
2018-10-02T16:07:31.223Z,58.30
2018-10-02T16:11:04.516Z,58.50
2018-10-02T16:14:37.737Z,58.70
2018-10-02T16:18:11.071Z,59.50
2018-10-02T16:21:44.378Z,60.50
2018-10-02T16:25:17.620Z,61.60
2018-10-02T16:28:50.860Z,62.80
2018-10-02T16:32:24.787Z,63.60
2018-10-02T16:35:58.053Z,64.00
2018-10-02T16:39:31.304Z,64.30
2018-10-02T16:43:04.558Z,64.70
2018-10-02T16:46:37.840Z,65.00
2018-10-02T16:50:11.084Z,65.30
2018-10-02T16:53:44.331Z,65.70
2018-10-02T16:57:17.603Z,66.00
2018-10-02T17:00:51.149Z,66.10
2018-10-02T17:04:24.382Z,66.40
2018-10-02T17:07:57.642Z,66.70
2018-10-02T17:11:30.892Z,66.80
2018-10-02T17:15:04.148Z,67.10
2018-10-02T17:18:37.393Z,67.50
2018-10-02T17:22:10.729Z,67.70
2018-10-02T17:25:44.013Z,68.20
2018-10-02T17:29:17.243Z,68.60
2018-10-02T17:32:50.492Z,69.20
2018-10-02T17:36:23.734Z,69.60
2018-10-02T17:39:57.005Z,69.90
2018-10-02T17:43:30.268Z,70.30
2018-10-02T17:47:03.562Z,70.50
2018-10-02T17:50:36.796Z,70.50
2018-10-02T17:54:10.040Z,71.50
2018-10-02T17:57:43.304Z,70.70
2018-10-02T18:01:16.546Z,70.90
2018-10-02T18:04:49.784Z,71.00
2018-10-02T18:08:23.029Z,71.00
2018-10-02T18:11:56.269Z,71.00
2018-10-02T18:15:29.590Z,71.20
2018-10-02T18:19:02.780Z,71.10
2018-10-02T18:22:36.028Z,71.20
2018-10-02T18:26:09.280Z,71.30
2018-10-02T18:29:42.533Z,71.20
2018-10-02T18:33:15.764Z,71.20
2018-10-02T18:36:49.018Z,71.20
2018-10-02T18:40:22.270Z,71.30
2018-10-02T18:43:55.523Z,71.30
2018-10-02T18:47:28.764Z,71.30
2018-10-02T18:51:01.997Z,71.20
2018-10-02T18:54:35.263Z,71.10
2018-10-02T18:58:08.573Z,71.10
2018-10-02T19:01:41.826Z,70.90
2018-10-02T19:05:15.065Z,70.70
2018-10-02T19:08:53.913Z,71.60
2018-10-02T19:12:27.139Z,70.70
2018-10-02T19:16:05.737Z,70.70
2018-10-02T19:19:44.467Z,71.00
2018-10-02T19:23:17.823Z,71.40
2018-10-02T19:26:51.071Z,72.00
2018-10-02T19:30:29.776Z,72.80
2018-10-02T19:34:03.040Z,74.00
2018-10-02T19:37:41.736Z,74.90
2018-10-02T19:41:15.388Z,75.70
2018-10-02T19:44:48.663Z,76.10
2018-10-02T19:48:21.910Z,76.40
2018-10-02T19:52:30.869Z,76.50
2018-10-02T19:56:04.452Z,76.70
2018-10-02T19:59:37.777Z,76.80
2018-10-02T20:03:11.046Z,77.00
2018-10-02T20:06:44.375Z,77.00
2018-10-02T20:10:19.186Z,77.00
2018-10-02T20:13:52.603Z,77.10
2018-10-02T20:17:26.017Z,77.30
2018-10-02T20:20:59.448Z,77.40
2018-10-02T20:24:33.876Z,77.50
2018-10-02T20:28:07.188Z,77.50
2018-10-02T20:31:45.081Z,77.60
2018-10-02T20:35:18.439Z,77.70
2018-10-02T20:38:52.573Z,77.90
2018-10-02T20:42:25.990Z,78.10
2018-10-02T20:45:59.220Z,78.20
2018-10-02T20:49:33.216Z,78.40
2018-10-02T20:53:06.826Z,78.40
2018-10-02T20:56:40.208Z,78.40
2018-10-02T21:00:14.268Z,78.50
2018-10-02T21:03:47.732Z,78.50
2018-10-02T21:07:21.070Z,78.50
2018-10-02T21:10:54.452Z,78.60
2018-10-02T21:14:27.800Z,78.60
2018-10-02T21:18:00.938Z,78.50
2018-10-02T21:21:34.249Z,78.60
2018-10-02T21:25:07.538Z,78.50
2018-10-02T21:28:40.757Z,78.50
2018-10-02T21:32:14.198Z,78.40
2018-10-02T21:35:48.588Z,78.20
2018-10-02T21:39:22.009Z,78.20
2018-10-02T21:42:55.502Z,78.10
2018-10-02T21:46:28.903Z,78.00
2018-10-02T21:50:02.273Z,78.00
2018-10-02T21:53:35.600Z,78.00
2018-10-02T21:57:08.943Z,78.00
2018-10-02T22:00:42.492Z,78.00
2018-10-02T22:04:15.942Z,78.00
2018-10-02T22:07:49.245Z,78.00
2018-10-02T22:11:22.649Z,78.10
2018-10-02T22:14:55.946Z,79.20
2018-10-02T22:18:29.178Z,78.40
2018-10-02T22:22:02.533Z,78.50
2018-10-02T22:25:36.101Z,78.50
2018-10-02T22:29:09.364Z,78.40
2018-10-02T22:32:43.195Z,78.40
2018-10-02T22:36:16.429Z,78.20
2018-10-02T22:39:49.670Z,78.10
2018-10-02T22:43:22.957Z,78.00
2018-10-02T22:46:56.204Z,78.90
2018-10-02T22:50:30.248Z,79.00
2018-10-02T22:54:03.491Z,78.40
2018-10-02T22:57:36.725Z,78.70
2018-10-02T23:01:09.975Z,78.80
2018-10-02T23:04:43.309Z,79.00
2018-10-02T23:08:16.616Z,79.80
2018-10-02T23:11:49.864Z,79.10
2018-10-02T23:15:23.121Z,79.00
2018-10-02T23:18:56.421Z,79.10
2018-10-02T23:22:29.657Z,79.10
2018-10-02T23:26:03.110Z,79.10
2018-10-02T23:29:36.333Z,79.00
2018-10-02T23:33:09.617Z,79.10
2018-10-02T23:36:42.928Z,79.20
2018-10-02T23:40:16.181Z,79.30
2018-10-02T23:43:49.432Z,79.50
2018-10-02T23:47:22.659Z,79.60
2018-10-02T23:50:55.897Z,79.80
2018-10-02T23:54:29.145Z,79.90
2018-10-02T23:58:02.365Z,80.00
